sensor_id;sensor_type;location;lat;lon;timestamp;P1;durP1;ratioP1;P2;durP2;ratioP2
15218;SDS011;15623;53.986;11.676;2023-01-16T00:01:55;6.00;;;3.20;;
15218;SDS011;15623;53.986;11.676;2023-01-16T00:04:24;5.90;;;2.80;;
15218;SDS011;15623;53.986;11.676;2023-01-16T00:06:52;5.90;;;2.93;;
15218;SDS011;15623;53.986;11.676;2023-01-16T00:09:20;3.30;;;2.83;;
15218;SDS011;15623;53.986;11.676;2023-01-16T00:11:51;4.33;;;2.93;;
15218;SDS011;15623;53.986;11.676;2023-01-16T00:14:19;4.77;;;2.87;;
15218;SDS011;15623;53.986;11.676;2023-01-16T00:16:46;3.10;;;2.80;;
15218;SDS011;15623;53.986;11.676;2023-01-16T00:19:14;8.73;;;3.00;;
15218;SDS011;15623;53.986;11.676;2023-01-16T00:21:43;3.83;;;2.50;;
15218;SDS011;15623;53.986;11.676;2023-01-16T00:24:13;4.90;;;3.07;;
15218;SDS011;15623;53.986;11.676;2023-01-16T00:26:40;7.23;;;3.20;;
15218;SDS011;15623;53.986;11.676;2023-01-16T00:29:09;4.63;;;2.73;;
15218;SDS011;15623;53.986;11.676;2023-01-16T00:31:37;3.80;;;2.60;;
15218;SDS011;15623;53.986;11.676;2023-01-16T00:34:04;4.53;;;2.80;;
15218;SDS011;15623;53.986;11.676;2023-01-16T00:36:32;5.77;;;3.00;;
15218;SDS011;15623;53.986;11.676;2023-01-16T00:39:01;4.27;;;2.60;;
15218;SDS011;15623;53.986;11.676;2023-01-16T00:41:28;3.57;;;2.90;;
15218;SDS011;15623;53.986;11.676;2023-01-16T00:43:56;4.03;;;2.77;;
15218;SDS011;15623;53.986;11.676;2023-01-16T00:46:24;4.27;;;3.17;;
15218;SDS011;15623;53.986;11.676;2023-01-16T00:48:54;5.00;;;2.63;;
15218;SDS011;15623;53.986;11.676;2023-01-16T00:51:21;4.63;;;2.97;;
15218;SDS011;15623;53.986;11.676;2023-01-16T00:53:49;5.03;;;3.07;;
15218;SDS011;15623;53.986;11.676;2023-01-16T00:56:18;5.30;;;3.10;;
15218;SDS011;15623;53.986;11.676;2023-01-16T00:58:46;5.03;;;2.90;;
15218;SDS011;15623;53.986;11.676;2023-01-16T01:01:13;3.47;;;2.83;;
15218;SDS011;15623;53.986;11.676;2023-01-16T01:03:41;4.87;;;2.73;;
15218;SDS011;15623;53.986;11.676;2023-01-16T01:06:10;5.97;;;2.90;;
15218;SDS011;15623;53.986;11.676;2023-01-16T01:08:39;4.53;;;3.27;;
15218;SDS011;15623;53.986;11.676;2023-01-16T01:11:06;5.13;;;3.00;;
15218;SDS011;15623;53.986;11.676;2023-01-16T01:13:36;2.87;;;2.57;;
15218;SDS011;15623;53.986;11.676;2023-01-16T01:16:04;3.93;;;2.93;;
15218;SDS011;15623;53.986;11.676;2023-01-16T01:18:31;4.40;;;2.70;;
15218;SDS011;15623;53.986;11.676;2023-01-16T01:20:58;3.93;;;2.57;;
15218;SDS011;15623;53.986;11.676;2023-01-16T01:23:26;4.27;;;2.77;;
15218;SDS011;15623;53.986;11.676;2023-01-16T01:25:53;4.93;;;2.97;;
15218;SDS011;15623;53.986;11.676;2023-01-16T01:28:22;3.93;;;3.07;;
15218;SDS011;15623;53.986;11.676;2023-01-16T01:30:51;3.97;;;3.27;;
15218;SDS011;15623;53.986;11.676;2023-01-16T01:33:18;4.23;;;2.93;;
15218;SDS011;15623;53.986;11.676;2023-01-16T01:35:46;5.60;;;3.00;;
15218;SDS011;15623;53.986;11.676;2023-01-16T01:38:13;3.07;;;2.63;;
15218;SDS011;15623;53.986;11.676;2023-01-16T01:40:41;6.27;;;3.17;;
15218;SDS011;15623;53.986;11.676;2023-01-16T01:43:11;3.20;;;2.93;;
15218;SDS011;15623;53.986;11.676;2023-01-16T01:45:39;4.80;;;3.43;;
15218;SDS011;15623;53.986;11.676;2023-01-16T01:48:18;4.17;;;3.43;;
15218;SDS011;15623;53.986;11.676;2023-01-16T01:50:47;4.40;;;3.53;;
15218;SDS011;15623;53.986;11.676;2023-01-16T01:53:16;5.73;;;3.57;;
15218;SDS011;15623;53.986;11.676;2023-01-16T01:55:46;4.77;;;3.83;;
15218;SDS011;15623;53.986;11.676;2023-01-16T01:58:15;4.10;;;3.57;;
15218;SDS011;15623;53.986;11.676;2023-01-16T02:00:46;4.23;;;3.43;;
15218;SDS011;15623;53.986;11.676;2023-01-16T02:03:18;4.60;;;3.30;;
15218;SDS011;15623;53.986;11.676;2023-01-16T02:05:51;6.57;;;3.50;;
15218;SDS011;15623;53.986;11.676;2023-01-16T02:08:19;4.60;;;4.10;;
15218;SDS011;15623;53.986;11.676;2023-01-16T02:10:49;5.73;;;4.13;;
15218;SDS011;15623;53.986;11.676;2023-01-16T02:13:17;5.73;;;4.53;;
15218;SDS011;15623;53.986;11.676;2023-01-16T02:15:44;5.57;;;4.13;;
15218;SDS011;15623;53.986;11.676;2023-01-16T02:18:28;5.07;;;4.57;;
15218;SDS011;15623;53.986;11.676;2023-01-16T02:21:16;6.83;;;4.30;;
15218;SDS011;15623;53.986;11.676;2023-01-16T02:29:51;6.03;;;5.10;;
15218;SDS011;15623;53.986;11.676;2023-01-16T02:37:54;5.67;;;5.17;;
15218;SDS011;15623;53.986;11.676;2023-01-16T02:40:24;5.97;;;5.40;;
15218;SDS011;15623;53.986;11.676;2023-01-16T02:42:57;7.20;;;5.53;;
15218;SDS011;15623;53.986;11.676;2023-01-16T02:45:29;5.97;;;5.47;;
15218;SDS011;15623;53.986;11.676;2023-01-16T02:47:58;8.30;;;5.53;;
15218;SDS011;15623;53.986;11.676;2023-01-16T02:50:34;9.43;;;5.30;;
15218;SDS011;15623;53.986;11.676;2023-01-16T02:53:07;6.20;;;5.60;;
15218;SDS011;15623;53.986;11.676;2023-01-16T02:55:39;7.83;;;5.47;;
15218;SDS011;15623;53.986;11.676;2023-01-16T02:58:08;7.47;;;5.93;;
15218;SDS011;15623;53.986;11.676;2023-01-16T03:00:37;9.73;;;6.33;;
15218;SDS011;15623;53.986;11.676;2023-01-16T03:03:04;9.07;;;5.87;;
15218;SDS011;15623;53.986;11.676;2023-01-16T03:05:34;7.83;;;5.60;;
15218;SDS011;15623;53.986;11.676;2023-01-16T03:08:21;7.27;;;5.10;;
15218;SDS011;15623;53.986;11.676;2023-01-16T03:10:56;6.83;;;5.00;;
15218;SDS011;15623;53.986;11.676;2023-01-16T03:13:34;7.87;;;4.93;;
15218;SDS011;15623;53.986;11.676;2023-01-16T03:16:10;8.27;;;5.07;;
15218;SDS011;15623;53.986;11.676;2023-01-16T03:18:44;7.47;;;4.73;;
15218;SDS011;15623;53.986;11.676;2023-01-16T03:21:17;8.67;;;5.00;;
15218;SDS011;15623;53.986;11.676;2023-01-16T03:23:51;6.33;;;4.53;;
15218;SDS011;15623;53.986;11.676;2023-01-16T03:26:21;8.10;;;4.50;;
15218;SDS011;15623;53.986;11.676;2023-01-16T03:28:55;7.20;;;4.50;;
15218;SDS011;15623;53.986;11.676;2023-01-16T03:31:28;7.20;;;4.53;;
15218;SDS011;15623;53.986;11.676;2023-01-16T03:33:59;8.87;;;4.30;;
15218;SDS011;15623;53.986;11.676;2023-01-16T03:36:34;9.00;;;4.47;;
15218;SDS011;15623;53.986;11.676;2023-01-16T03:39:07;5.97;;;4.83;;
15218;SDS011;15623;53.986;11.676;2023-01-16T03:41:36;6.80;;;4.60;;
15218;SDS011;15623;53.986;11.676;2023-01-16T03:44:05;7.03;;;4.20;;
15218;SDS011;15623;53.986;11.676;2023-01-16T03:46:37;5.57;;;4.40;;
15218;SDS011;15623;53.986;11.676;2023-01-16T03:49:06;8.27;;;3.73;;
15218;SDS011;15623;53.986;11.676;2023-01-16T03:51:36;4.77;;;3.13;;
15218;SDS011;15623;53.986;11.676;2023-01-16T03:56:50;5.40;;;3.23;;
15218;SDS011;15623;53.986;11.676;2023-01-16T03:59:19;5.90;;;3.13;;
15218;SDS011;15623;53.986;11.676;2023-01-16T04:01:47;6.23;;;3.07;;
15218;SDS011;15623;53.986;11.676;2023-01-16T04:04:18;3.23;;;2.90;;
15218;SDS011;15623;53.986;11.676;2023-01-16T04:06:48;5.87;;;2.93;;
15218;SDS011;15623;53.986;11.676;2023-01-16T04:09:20;5.93;;;3.03;;
15218;SDS011;15623;53.986;11.676;2023-01-16T04:11:49;4.97;;;2.83;;
15218;SDS011;15623;53.986;11.676;2023-01-16T04:14:17;5.83;;;2.73;;
15218;SDS011;15623;53.986;11.676;2023-01-16T04:16:46;4.50;;;2.80;;
15218;SDS011;15623;53.986;11.676;2023-01-16T04:19:14;3.83;;;2.40;;
15218;SDS011;15623;53.986;11.676;2023-01-16T04:21:42;5.57;;;2.63;;
15218;SDS011;15623;53.986;11.676;2023-01-16T04:24:10;4.10;;;2.63;;
15218;SDS011;15623;53.986;11.676;2023-01-16T04:26:40;4.87;;;2.53;;
15218;SDS011;15623;53.986;11.676;2023-01-16T04:29:07;5.80;;;2.27;;
15218;SDS011;15623;53.986;11.676;2023-01-16T04:31:34;8.93;;;2.20;;
15218;SDS011;15623;53.986;11.676;2023-01-16T04:34:02;2.90;;;1.83;;
15218;SDS011;15623;53.986;11.676;2023-01-16T04:36:30;2.00;;;1.67;;
15218;SDS011;15623;53.986;11.676;2023-01-16T04:38:57;5.40;;;1.97;;
15218;SDS011;15623;53.986;11.676;2023-01-16T04:41:24;2.37;;;1.87;;
15218;SDS011;15623;53.986;11.676;2023-01-16T04:44:08;3.37;;;2.10;;
15218;SDS011;15623;53.986;11.676;2023-01-16T04:46:37;5.00;;;2.50;;
15218;SDS011;15623;53.986;11.676;2023-01-16T04:49:05;3.10;;;2.20;;
15218;SDS011;15623;53.986;11.676;2023-01-16T04:51:34;7.83;;;2.60;;
15218;SDS011;15623;53.986;11.676;2023-01-16T04:54:16;3.90;;;2.60;;
15218;SDS011;15623;53.986;11.676;2023-01-16T04:56:44;2.80;;;2.47;;
15218;SDS011;15623;53.986;11.676;2023-01-16T04:59:13;5.17;;;2.87;;
15218;SDS011;15623;53.986;11.676;2023-01-16T05:01:40;4.83;;;2.70;;
15218;SDS011;15623;53.986;11.676;2023-01-16T05:04:08;4.03;;;2.83;;
15218;SDS011;15623;53.986;11.676;2023-01-16T05:06:36;4.13;;;2.73;;
15218;SDS011;15623;53.986;11.676;2023-01-16T05:09:04;6.03;;;2.97;;
15218;SDS011;15623;53.986;11.676;2023-01-16T05:11:32;5.93;;;3.20;;
15218;SDS011;15623;53.986;11.676;2023-01-16T05:14:00;5.90;;;3.30;;
15218;SDS011;15623;53.986;11.676;2023-01-16T05:16:29;3.33;;;3.00;;
15218;SDS011;15623;53.986;11.676;2023-01-16T05:18:56;3.73;;;2.60;;
15218;SDS011;15623;53.986;11.676;2023-01-16T05:21:24;4.50;;;2.70;;
15218;SDS011;15623;53.986;11.676;2023-01-16T05:23:51;7.60;;;3.10;;
15218;SDS011;15623;53.986;11.676;2023-01-16T05:26:19;5.03;;;3.00;;
15218;SDS011;15623;53.986;11.676;2023-01-16T05:28:46;5.10;;;2.87;;
15218;SDS011;15623;53.986;11.676;2023-01-16T05:31:13;2.60;;;2.30;;
15218;SDS011;15623;53.986;11.676;2023-01-16T05:33:43;3.57;;;2.20;;
15218;SDS011;15623;53.986;11.676;2023-01-16T05:36:11;2.77;;;2.20;;
15218;SDS011;15623;53.986;11.676;2023-01-16T05:38:39;3.47;;;2.07;;
15218;SDS011;15623;53.986;11.676;2023-01-16T05:41:07;3.93;;;2.10;;
15218;SDS011;15623;53.986;11.676;2023-01-16T05:43:36;4.70;;;1.80;;
15218;SDS011;15623;53.986;11.676;2023-01-16T05:46:04;5.13;;;2.00;;
15218;SDS011;15623;53.986;11.676;2023-01-16T05:48:33;2.27;;;1.87;;
15218;SDS011;15623;53.986;11.676;2023-01-16T05:51:04;4.30;;;1.70;;
15218;SDS011;15623;53.986;11.676;2023-01-16T05:56:52;4.63;;;1.70;;
15218;SDS011;15623;53.986;11.676;2023-01-16T05:59:37;4.53;;;1.73;;
15218;SDS011;15623;53.986;11.676;2023-01-16T06:02:07;3.27;;;1.70;;
15218;SDS011;15623;53.986;11.676;2023-01-16T06:07:46;5.73;;;2.00;;
15218;SDS011;15623;53.986;11.676;2023-01-16T06:10:14;4.33;;;1.50;;
15218;SDS011;15623;53.986;11.676;2023-01-16T06:12:43;3.47;;;1.50;;
15218;SDS011;15623;53.986;11.676;2023-01-16T06:15:11;2.63;;;1.27;;
15218;SDS011;15623;53.986;11.676;2023-01-16T06:17:39;2.87;;;1.30;;
15218;SDS011;15623;53.986;11.676;2023-01-16T06:20:06;2.97;;;1.47;;
15218;SDS011;15623;53.986;11.676;2023-01-16T06:22:37;4.70;;;1.30;;
15218;SDS011;15623;53.986;11.676;2023-01-16T06:25:08;3.50;;;1.37;;
15218;SDS011;15623;53.986;11.676;2023-01-16T06:27:35;3.27;;;1.23;;
15218;SDS011;15623;53.986;11.676;2023-01-16T06:30:03;6.30;;;1.30;;
15218;SDS011;15623;53.986;11.676;2023-01-16T06:32:30;2.17;;;1.53;;
15218;SDS011;15623;53.986;11.676;2023-01-16T06:35:04;1.70;;;1.27;;
15218;SDS011;15623;53.986;11.676;2023-01-16T06:37:32;3.60;;;1.67;;
15218;SDS011;15623;53.986;11.676;2023-01-16T06:39:59;1.90;;;1.40;;
15218;SDS011;15623;53.986;11.676;2023-01-16T06:42:29;3.73;;;1.50;;
15218;SDS011;15623;53.986;11.676;2023-01-16T06:44:56;1.77;;;1.40;;
15218;SDS011;15623;53.986;11.676;2023-01-16T06:47:24;2.93;;;1.40;;
15218;SDS011;15623;53.986;11.676;2023-01-16T06:49:52;2.40;;;1.23;;
15218;SDS011;15623;53.986;11.676;2023-01-16T06:52:23;2.40;;;1.13;;
15218;SDS011;15623;53.986;11.676;2023-01-16T06:54:51;1.63;;;1.20;;
15218;SDS011;15623;53.986;11.676;2023-01-16T06:57:19;2.03;;;1.10;;
15218;SDS011;15623;53.986;11.676;2023-01-16T06:59:48;2.07;;;1.20;;
15218;SDS011;15623;53.986;11.676;2023-01-16T07:02:16;3.33;;;1.30;;
15218;SDS011;15623;53.986;11.676;2023-01-16T07:04:45;2.97;;;1.00;;
15218;SDS011;15623;53.986;11.676;2023-01-16T07:07:16;3.80;;;1.27;;
15218;SDS011;15623;53.986;11.676;2023-01-16T07:09:45;2.93;;;1.10;;
15218;SDS011;15623;53.986;11.676;2023-01-16T07:12:13;2.63;;;1.30;;
15218;SDS011;15623;53.986;11.676;2023-01-16T07:14:41;2.43;;;1.40;;
15218;SDS011;15623;53.986;11.676;2023-01-16T07:17:28;3.17;;;1.33;;
15218;SDS011;15623;53.986;11.676;2023-01-16T07:20:13;2.87;;;1.27;;
15218;SDS011;15623;53.986;11.676;2023-01-16T07:22:58;2.67;;;1.33;;
15218;SDS011;15623;53.986;11.676;2023-01-16T07:25:29;2.30;;;1.40;;
15218;SDS011;15623;53.986;11.676;2023-01-16T07:27:58;4.27;;;1.60;;
15218;SDS011;15623;53.986;11.676;2023-01-16T07:30:32;3.53;;;1.63;;
15218;SDS011;15623;53.986;11.676;2023-01-16T07:35:44;5.00;;;1.50;;
15218;SDS011;15623;53.986;11.676;2023-01-16T07:38:15;1.93;;;1.20;;
15218;SDS011;15623;53.986;11.676;2023-01-16T07:40:44;3.10;;;1.20;;
15218;SDS011;15623;53.986;11.676;2023-01-16T07:43:16;5.00;;;1.30;;
15218;SDS011;15623;53.986;11.676;2023-01-16T07:45:43;3.83;;;1.30;;
15218;SDS011;15623;53.986;11.676;2023-01-16T07:48:17;3.00;;;1.30;;
15218;SDS011;15623;53.986;11.676;2023-01-16T07:50:53;3.40;;;1.43;;
15218;SDS011;15623;53.986;11.676;2023-01-16T07:53:26;3.00;;;1.67;;
15218;SDS011;15623;53.986;11.676;2023-01-16T07:55:54;4.63;;;1.40;;
15218;SDS011;15623;53.986;11.676;2023-01-16T07:58:24;2.90;;;1.30;;
15218;SDS011;15623;53.986;11.676;2023-01-16T08:00:54;2.63;;;1.10;;
15218;SDS011;15623;53.986;11.676;2023-01-16T08:03:24;3.27;;;1.20;;
15218;SDS011;15623;53.986;11.676;2023-01-16T08:05:57;5.60;;;1.30;;
15218;SDS011;15623;53.986;11.676;2023-01-16T08:08:25;1.80;;;1.10;;
15218;SDS011;15623;53.986;11.676;2023-01-16T08:10:53;2.67;;;1.13;;
15218;SDS011;15623;53.986;11.676;2023-01-16T08:13:21;3.13;;;1.00;;
15218;SDS011;15623;53.986;11.676;2023-01-16T08:15:49;5.13;;;3.60;;
15218;SDS011;15623;53.986;11.676;2023-01-16T08:18:18;4.00;;;1.37;;
15218;SDS011;15623;53.986;11.676;2023-01-16T08:20:51;9.10;;;4.13;;
15218;SDS011;15623;53.986;11.676;2023-01-16T08:23:20;2.57;;;1.50;;
15218;SDS011;15623;53.986;11.676;2023-01-16T08:25:49;2.87;;;1.30;;
15218;SDS011;15623;53.986;11.676;2023-01-16T08:28:17;5.20;;;2.73;;
15218;SDS011;15623;53.986;11.676;2023-01-16T08:30:44;1.87;;;1.60;;
15218;SDS011;15623;53.986;11.676;2023-01-16T08:33:11;5.30;;;1.80;;
15218;SDS011;15623;53.986;11.676;2023-01-16T08:35:39;1.90;;;1.00;;
15218;SDS011;15623;53.986;11.676;2023-01-16T08:38:06;4.73;;;2.23;;
15218;SDS011;15623;53.986;11.676;2023-01-16T08:40:35;4.30;;;2.30;;
15218;SDS011;15623;53.986;11.676;2023-01-16T08:43:02;7.73;;;2.73;;
15218;SDS011;15623;53.986;11.676;2023-01-16T08:45:47;4.73;;;2.57;;
15218;SDS011;15623;53.986;11.676;2023-01-16T08:48:46;10.90;;;6.27;;
15218;SDS011;15623;53.986;11.676;2023-01-16T08:51:31;4.77;;;3.70;;
15218;SDS011;15623;53.986;11.676;2023-01-16T08:53:58;5.80;;;3.93;;
15218;SDS011;15623;53.986;11.676;2023-01-16T08:56:27;5.13;;;3.60;;
15218;SDS011;15623;53.986;11.676;2023-01-16T08:58:54;13.20;;;6.70;;
15218;SDS011;15623;53.986;11.676;2023-01-16T09:01:22;9.83;;;4.20;;
15218;SDS011;15623;53.986;11.676;2023-01-16T09:03:50;2.37;;;1.40;;
15218;SDS011;15623;53.986;11.676;2023-01-16T09:06:18;15.47;;;9.60;;
15218;SDS011;15623;53.986;11.676;2023-01-16T09:08:45;6.50;;;5.80;;
15218;SDS011;15623;53.986;11.676;2023-01-16T09:11:12;10.20;;;6.07;;
15218;SDS011;15623;53.986;11.676;2023-01-16T09:13:58;3.83;;;3.27;;
15218;SDS011;15623;53.986;11.676;2023-01-16T09:16:26;3.70;;;1.70;;
15218;SDS011;15623;53.986;11.676;2023-01-16T09:18:53;3.80;;;2.90;;
15218;SDS011;15623;53.986;11.676;2023-01-16T09:21:21;2.67;;;1.73;;
15218;SDS011;15623;53.986;11.676;2023-01-16T09:23:49;4.87;;;4.47;;
15218;SDS011;15623;53.986;11.676;2023-01-16T09:26:16;4.47;;;3.23;;
15218;SDS011;15623;53.986;11.676;2023-01-16T09:28:44;2.87;;;1.90;;
15218;SDS011;15623;53.986;11.676;2023-01-16T09:31:13;6.60;;;3.73;;
15218;SDS011;15623;53.986;11.676;2023-01-16T09:33:40;2.37;;;1.70;;
15218;SDS011;15623;53.986;11.676;2023-01-16T09:36:07;3.17;;;1.90;;
15218;SDS011;15623;53.986;11.676;2023-01-16T09:38:35;2.90;;;2.33;;
15218;SDS011;15623;53.986;11.676;2023-01-16T09:41:03;3.03;;;1.60;;
15218;SDS011;15623;53.986;11.676;2023-01-16T09:43:33;3.13;;;1.50;;
15218;SDS011;15623;53.986;11.676;2023-01-16T09:46:07;2.27;;;1.40;;
15218;SDS011;15623;53.986;11.676;2023-01-16T09:48:38;2.63;;;1.50;;
15218;SDS011;15623;53.986;11.676;2023-01-16T09:51:10;3.00;;;2.53;;
15218;SDS011;15623;53.986;11.676;2023-01-16T09:53:39;2.00;;;1.20;;
15218;SDS011;15623;53.986;11.676;2023-01-16T09:56:28;2.77;;;2.17;;
15218;SDS011;15623;53.986;11.676;2023-01-16T09:59:18;2.40;;;1.30;;
15218;SDS011;15623;53.986;11.676;2023-01-16T10:01:47;2.20;;;1.33;;
15218;SDS011;15623;53.986;11.676;2023-01-16T10:04:19;5.33;;;4.13;;
15218;SDS011;15623;53.986;11.676;2023-01-16T10:06:50;1.77;;;1.27;;
15218;SDS011;15623;53.986;11.676;2023-01-16T10:09:21;2.63;;;1.30;;
15218;SDS011;15623;53.986;11.676;2023-01-16T10:11:53;2.37;;;1.20;;
15218;SDS011;15623;53.986;11.676;2023-01-16T10:14:27;1.97;;;1.20;;
15218;SDS011;15623;53.986;11.676;2023-01-16T10:17:00;5.43;;;3.50;;
15218;SDS011;15623;53.986;11.676;2023-01-16T10:19:38;3.03;;;1.17;;
15218;SDS011;15623;53.986;11.676;2023-01-16T10:22:11;3.40;;;1.33;;
15218;SDS011;15623;53.986;11.676;2023-01-16T10:24:44;2.43;;;1.20;;
15218;SDS011;15623;53.986;11.676;2023-01-16T10:27:16;1.57;;;1.10;;
15218;SDS011;15623;53.986;11.676;2023-01-16T10:29:47;2.93;;;2.43;;
15218;SDS011;15623;53.986;11.676;2023-01-16T10:32:18;4.10;;;2.50;;
15218;SDS011;15623;53.986;11.676;2023-01-16T10:34:52;2.60;;;1.30;;
15218;SDS011;15623;53.986;11.676;2023-01-16T10:37:21;1.63;;;1.30;;
15218;SDS011;15623;53.986;11.676;2023-01-16T10:39:49;2.33;;;1.47;;
15218;SDS011;15623;53.986;11.676;2023-01-16T10:42:18;2.50;;;2.30;;
15218;SDS011;15623;53.986;11.676;2023-01-16T10:45:11;1.20;;;1.03;;
15218;SDS011;15623;53.986;11.676;2023-01-16T10:47:57;1.97;;;1.87;;
15218;SDS011;15623;53.986;11.676;2023-01-16T10:50:44;2.20;;;1.53;;
15218;SDS011;15623;53.986;11.676;2023-01-16T10:53:12;1.37;;;1.20;;
15218;SDS011;15623;53.986;11.676;2023-01-16T10:55:40;1.73;;;0.97;;
15218;SDS011;15623;53.986;11.676;2023-01-16T10:58:14;1.33;;;1.03;;
15218;SDS011;15623;53.986;11.676;2023-01-16T11:00:44;1.37;;;1.07;;
15218;SDS011;15623;53.986;11.676;2023-01-16T11:03:14;2.60;;;1.03;;
15218;SDS011;15623;53.986;11.676;2023-01-16T11:05:41;1.93;;;1.23;;
15218;SDS011;15623;53.986;11.676;2023-01-16T11:08:11;3.33;;;1.57;;
15218;SDS011;15623;53.986;11.676;2023-01-16T11:10:39;1.90;;;1.20;;
15218;SDS011;15623;53.986;11.676;2023-01-16T11:13:10;1.97;;;1.30;;
15218;SDS011;15623;53.986;11.676;2023-01-16T11:16:00;1.73;;;1.40;;
15218;SDS011;15623;53.986;11.676;2023-01-16T11:18:47;1.80;;;1.03;;
15218;SDS011;15623;53.986;11.676;2023-01-16T11:21:15;1.37;;;1.27;;
15218;SDS011;15623;53.986;11.676;2023-01-16T11:26:31;2.67;;;1.03;;
15218;SDS011;15623;53.986;11.676;2023-01-16T11:28:59;1.90;;;1.13;;
15218;SDS011;15623;53.986;11.676;2023-01-16T11:31:27;3.20;;;1.03;;
15218;SDS011;15623;53.986;11.676;2023-01-16T11:33:57;3.37;;;1.00;;
15218;SDS011;15623;53.986;11.676;2023-01-16T11:36:27;0.97;;;0.90;;
15218;SDS011;15623;53.986;11.676;2023-01-16T11:38:55;1.57;;;1.10;;
15218;SDS011;15623;53.986;11.676;2023-01-16T11:41:23;1.23;;;1.03;;
15218;SDS011;15623;53.986;11.676;2023-01-16T11:44:12;0.90;;;0.90;;
15218;SDS011;15623;53.986;11.676;2023-01-16T11:46:57;1.97;;;1.33;;
15218;SDS011;15623;53.986;11.676;2023-01-16T11:49:25;2.73;;;2.50;;
15218;SDS011;15623;53.986;11.676;2023-01-16T11:51:54;3.27;;;2.30;;
15218;SDS011;15623;53.986;11.676;2023-01-16T11:54:24;2.00;;;1.40;;
15218;SDS011;15623;53.986;11.676;2023-01-16T11:56:55;1.07;;;1.00;;
15218;SDS011;15623;53.986;11.676;2023-01-16T11:59:34;1.20;;;1.10;;
15218;SDS011;15623;53.986;11.676;2023-01-16T12:02:06;1.43;;;1.23;;
15218;SDS011;15623;53.986;11.676;2023-01-16T12:04:46;1.77;;;0.93;;
15218;SDS011;15623;53.986;11.676;2023-01-16T12:07:39;1.10;;;1.00;;
15218;SDS011;15623;53.986;11.676;2023-01-16T12:10:24;1.67;;;1.10;;
15218;SDS011;15623;53.986;11.676;2023-01-16T12:12:56;1.30;;;0.93;;
15218;SDS011;15623;53.986;11.676;2023-01-16T12:15:48;1.30;;;0.93;;
15218;SDS011;15623;53.986;11.676;2023-01-16T12:18:18;3.67;;;1.10;;
15218;SDS011;15623;53.986;11.676;2023-01-16T12:20:52;2.43;;;1.20;;
15218;SDS011;15623;53.986;11.676;2023-01-16T12:23:27;1.83;;;1.10;;
15218;SDS011;15623;53.986;11.676;2023-01-16T12:25:59;2.77;;;1.07;;
15218;SDS011;15623;53.986;11.676;2023-01-16T12:28:33;2.70;;;1.30;;
15218;SDS011;15623;53.986;11.676;2023-01-16T12:31:15;1.47;;;1.00;;
15218;SDS011;15623;53.986;11.676;2023-01-16T12:33:59;1.87;;;1.10;;
15218;SDS011;15623;53.986;11.676;2023-01-16T12:36:30;2.00;;;1.20;;
15218;SDS011;15623;53.986;11.676;2023-01-16T12:39:02;1.40;;;0.97;;
15218;SDS011;15623;53.986;11.676;2023-01-16T12:41:31;2.87;;;1.00;;
15218;SDS011;15623;53.986;11.676;2023-01-16T12:44:25;2.93;;;1.20;;
15218;SDS011;15623;53.986;11.676;2023-01-16T12:47:00;4.80;;;2.63;;
15218;SDS011;15623;53.986;11.676;2023-01-16T12:49:36;4.03;;;1.50;;
15218;SDS011;15623;53.986;11.676;2023-01-16T12:52:10;2.87;;;2.33;;
15218;SDS011;15623;53.986;11.676;2023-01-16T12:54:42;2.30;;;1.70;;
15218;SDS011;15623;53.986;11.676;2023-01-16T12:59:58;1.47;;;1.00;;
15218;SDS011;15623;53.986;11.676;2023-01-16T13:02:30;4.00;;;1.20;;
15218;SDS011;15623;53.986;11.676;2023-01-16T13:05:00;4.00;;;1.63;;
15218;SDS011;15623;53.986;11.676;2023-01-16T13:07:28;3.90;;;1.33;;
15218;SDS011;15623;53.986;11.676;2023-01-16T13:09:59;2.03;;;1.40;;
15218;SDS011;15623;53.986;11.676;2023-01-16T13:12:42;1.63;;;1.20;;
15218;SDS011;15623;53.986;11.676;2023-01-16T13:15:29;3.93;;;3.50;;
15218;SDS011;15623;53.986;11.676;2023-01-16T13:18:00;16.40;;;11.40;;
15218;SDS011;15623;53.986;11.676;2023-01-16T13:20:30;10.53;;;8.60;;
15218;SDS011;15623;53.986;11.676;2023-01-16T13:22:59;18.87;;;15.30;;
15218;SDS011;15623;53.986;11.676;2023-01-16T13:25:29;4.07;;;3.57;;
15218;SDS011;15623;53.986;11.676;2023-01-16T13:27:59;4.63;;;3.27;;
15218;SDS011;15623;53.986;11.676;2023-01-16T13:30:27;3.23;;;2.67;;
15218;SDS011;15623;53.986;11.676;2023-01-16T13:32:56;3.83;;;3.57;;
15218;SDS011;15623;53.986;11.676;2023-01-16T13:35:26;6.60;;;5.80;;
15218;SDS011;15623;53.986;11.676;2023-01-16T13:37:58;7.17;;;6.50;;
15218;SDS011;15623;53.986;11.676;2023-01-16T13:40:34;5.57;;;4.20;;
15218;SDS011;15623;53.986;11.676;2023-01-16T13:43:06;6.03;;;3.57;;
15218;SDS011;15623;53.986;11.676;2023-01-16T13:45:52;2.47;;;1.43;;
15218;SDS011;15623;53.986;11.676;2023-01-16T13:48:21;3.17;;;1.70;;
15218;SDS011;15623;53.986;11.676;2023-01-16T13:50:52;3.30;;;2.00;;
15218;SDS011;15623;53.986;11.676;2023-01-16T13:53:25;2.67;;;1.50;;
15218;SDS011;15623;53.986;11.676;2023-01-16T13:56:00;6.77;;;3.60;;
15218;SDS011;15623;53.986;11.676;2023-01-16T13:58:30;4.27;;;2.47;;
15218;SDS011;15623;53.986;11.676;2023-01-16T14:00:58;5.33;;;4.83;;
15218;SDS011;15623;53.986;11.676;2023-01-16T14:03:26;5.60;;;3.70;;
15218;SDS011;15623;53.986;11.676;2023-01-16T14:06:20;2.63;;;2.43;;
15218;SDS011;15623;53.986;11.676;2023-01-16T14:08:45;3.33;;;2.77;;
15218;SDS011;15623;53.986;11.676;2023-01-16T14:11:33;4.60;;;2.67;;
15218;SDS011;15623;53.986;11.676;2023-01-16T14:17:19;2.30;;;1.83;;
15218;SDS011;15623;53.986;11.676;2023-01-16T14:19:56;5.00;;;1.70;;
15218;SDS011;15623;53.986;11.676;2023-01-16T14:22:26;4.10;;;2.20;;
15218;SDS011;15623;53.986;11.676;2023-01-16T14:25:18;3.33;;;2.23;;
15218;SDS011;15623;53.986;11.676;2023-01-16T14:27:48;3.33;;;1.87;;
15218;SDS011;15623;53.986;11.676;2023-01-16T14:30:19;3.17;;;1.70;;
15218;SDS011;15623;53.986;11.676;2023-01-16T14:32:48;3.40;;;2.10;;
15218;SDS011;15623;53.986;11.676;2023-01-16T14:35:18;2.47;;;1.40;;
15218;SDS011;15623;53.986;11.676;2023-01-16T14:37:55;1.60;;;1.50;;
15218;SDS011;15623;53.986;11.676;2023-01-16T14:40:24;2.87;;;1.80;;
15218;SDS011;15623;53.986;11.676;2023-01-16T14:43:13;2.50;;;1.50;;
15218;SDS011;15623;53.986;11.676;2023-01-16T14:46:23;2.27;;;1.43;;
15218;SDS011;15623;53.986;11.676;2023-01-16T14:52:12;3.50;;;1.50;;
15218;SDS011;15623;53.986;11.676;2023-01-16T14:54:59;2.43;;;1.30;;
15218;SDS011;15623;53.986;11.676;2023-01-16T14:57:41;3.10;;;1.20;;
15218;SDS011;15623;53.986;11.676;2023-01-16T15:00:10;1.77;;;1.37;;
15218;SDS011;15623;53.986;11.676;2023-01-16T15:02:41;3.70;;;2.20;;
15218;SDS011;15623;53.986;11.676;2023-01-16T15:05:12;7.53;;;4.47;;
15218;SDS011;15623;53.986;11.676;2023-01-16T15:07:43;3.73;;;2.27;;
15218;SDS011;15623;53.986;11.676;2023-01-16T15:10:16;1.43;;;1.33;;
15218;SDS011;15623;53.986;11.676;2023-01-16T15:12:44;3.03;;;2.07;;
15218;SDS011;15623;53.986;11.676;2023-01-16T15:15:19;3.80;;;1.50;;
15218;SDS011;15623;53.986;11.676;2023-01-16T15:17:48;1.83;;;1.57;;
15218;SDS011;15623;53.986;11.676;2023-01-16T15:20:33;3.97;;;2.00;;
15218;SDS011;15623;53.986;11.676;2023-01-16T15:23:22;5.23;;;1.40;;
15218;SDS011;15623;53.986;11.676;2023-01-16T15:28:37;2.73;;;1.37;;
15218;SDS011;15623;53.986;11.676;2023-01-16T15:31:06;3.20;;;1.53;;
15218;SDS011;15623;53.986;11.676;2023-01-16T15:33:34;2.27;;;1.30;;
15218;SDS011;15623;53.986;11.676;2023-01-16T15:36:16;1.73;;;1.63;;
15218;SDS011;15623;53.986;11.676;2023-01-16T15:38:45;3.63;;;1.50;;